DW8790 Maspalomas ES current weather conditions

sailwx.info

Wind from 304 at 0 knots gusting 2

Air temperature 15.0° C
Dewpoint 7.1° C

Last reported at 2014-Dec-20 04:50 UTC.
Time now 2014-Dec-20 05:10 UTC

Location: N 27°46' W 015°34'.
View on Google Maps.

See reports from other nearby stations

  
Tides and Currents Weather Stations Pressure Air Temp Water Temp Dewpoint Dewpoint Depression Visibility Wind Speed Wind Dir Waves Ship Positions
date/time (UTC)wind fromknots sea level pressurealtimeterstation pressurevisibilityair tempwater tempwave heightnotes
2014-Dec-20 04:50 304 0 gusting 2 15.0
2014-Dec-20 04:40 283 14.4
2014-Dec-20 04:30 283 14.4
2014-Dec-20 04:20 283 14.4
2014-Dec-20 04:10 315 0 gusting 2 14.4
2014-Dec-20 04:00 317 1 gusting 2 15.0
2014-Dec-20 03:50 313 0 gusting 2 15.0
2014-Dec-20 03:40 132 15.0
2014-Dec-20 03:30 131 2 gusting 4 15.0
2014-Dec-20 03:20 346 0 gusting 2 15.0
2014-Dec-20 03:10 346 15.0
2014-Dec-20 03:00 346 15.0
2014-Dec-20 02:50 346 15.0
2014-Dec-20 02:40 346 15.0
2014-Dec-20 02:30 346 0 gusting 2 15.0
2014-Dec-20 02:20 346 15.0
2014-Dec-20 02:10 346 15.0
2014-Dec-20 02:00 346 15.0
2014-Dec-20 01:50 346 15.6
2014-Dec-20 01:40 346 15.6
2014-Dec-20 01:30 346 15.6
2014-Dec-20 01:20 346 16.1
2014-Dec-20 01:10 346 16.7
2014-Dec-20 01:00 004 1 gusting 4 16.7
2014-Dec-20 00:50 346 1 gusting 2 16.7
2014-Dec-20 00:40 051 17.2
2014-Dec-20 00:30 093 7 gusting 10 17.2
2014-Dec-20 00:20 096 5 gusting 8 17.2
2014-Dec-20 00:10 104 4 gusting 7 17.2
2014-Dec-20 00:00 089 2 gusting 6 16.7
2014-Dec-19 23:50 083 0 gusting 4 16.7
2014-Dec-19 23:40 083 1 gusting 4 16.7
2014-Dec-19 23:30 067 16.7
2014-Dec-19 23:20 005 0 gusting 1 17.2
2014-Dec-19 23:10 005 0 gusting 2 17.8
2014-Dec-19 23:00 088 0 gusting 5 18.3
2014-Dec-19 22:50 052 2 gusting 8 18.3
2014-Dec-19 22:40 084 8 gusting 13 18.9
2014-Dec-19 22:30 082 7 gusting 13 18.9
2014-Dec-19 22:20 087 9 gusting 14 18.9
2014-Dec-19 22:10 094 9 gusting 13 18.9
2014-Dec-19 22:00 089 8 gusting 12 18.9
2014-Dec-19 21:50 087 6 gusting 11 18.3
2014-Dec-19 21:40 094 5 gusting 8 17.8
2014-Dec-19 21:30 102 4 gusting 6 17.2
2014-Dec-19 21:20 025 5 gusting 6 17.2
2014-Dec-19 21:10 024 4 gusting 6 17.2
2014-Dec-19 21:00 022 2 gusting 2 17.2
2014-Dec-19 20:50 033 1 gusting 4 17.8
2014-Dec-19 20:40 031 1 gusting 2 18.3
2014-Dec-19 20:30 025 1 gusting 6 18.3
2014-Dec-19 20:20 029 1 gusting 4 18.9
2014-Dec-19 20:10 033 3 gusting 5 19.4
2014-Dec-19 20:00 024 2 gusting 4 20.0
2014-Dec-19 19:50 017 0 gusting 2 20.0
2014-Dec-19 19:40 016 1 gusting 2 20.0
2014-Dec-19 19:30 027 2 gusting 4 20.0
2014-Dec-19 19:20 027 3 gusting 6 20.0
2014-Dec-19 19:10 034 0 gusting 2 20.6
2014-Dec-19 19:00 030 0 gusting 2 20.6
2014-Dec-19 18:50 022 6 gusting 7 20.6
2014-Dec-19 18:40 023 7 gusting 10 20.6
2014-Dec-19 18:30 026 7 gusting 10 21.1
2014-Dec-19 18:20 028 7 gusting 10 21.1
2014-Dec-19 18:10 028 8 gusting 11 21.1
2014-Dec-19 18:00 018 8 gusting 10 21.1
2014-Dec-19 17:50 023 9 gusting 13 21.7
2014-Dec-19 17:40 027 6 gusting 13 21.7
2014-Dec-19 17:30 024 10 gusting 13 22.2
2014-Dec-19 17:20 027 10 gusting 14 22.2
2014-Dec-19 17:10 034 11 gusting 15 22.2
2014-Dec-19 17:00 031 12 gusting 18 22.8
2014-Dec-19 16:50 022 11 gusting 12 22.8
2014-Dec-19 16:40 029 11 gusting 17 22.8
2014-Dec-19 16:30 029 12 gusting 17 22.8
2014-Dec-19 16:20 026 11 gusting 20 23.3
2014-Dec-19 16:10 030 10 gusting 19 23.3
2014-Dec-19 16:00 020 14 gusting 18 23.3
2014-Dec-19 15:50 031 11 gusting 17 23.3
2014-Dec-19 15:40 033 11 gusting 15 23.3
2014-Dec-19 15:30 026 13 gusting 18 23.3
2014-Dec-19 15:20 020 12 gusting 13 23.9
2014-Dec-19 15:10 029 13 gusting 15 23.9
2014-Dec-19 15:00 034 11 gusting 19 23.9
2014-Dec-19 14:50 025 13 gusting 14 23.3
2014-Dec-19 14:40 028 10 gusting 15 23.3
2014-Dec-19 14:30 032 12 gusting 17 23.9
2014-Dec-19 14:20 026 13 gusting 15 23.9
2014-Dec-19 14:10 026 11 gusting 13 23.9
2014-Dec-19 14:00 027 14 gusting 17 23.9
2014-Dec-19 13:50 023 12 gusting 17 23.9
2014-Dec-19 13:40 030 13 gusting 19 23.9
2014-Dec-19 13:30 030 11 gusting 15 24.4
2014-Dec-19 13:20 031 10 gusting 13 23.9
2014-Dec-19 13:10 027 12 gusting 19 23.9
2014-Dec-19 13:00 032 12 gusting 15 23.9
2014-Dec-19 12:50 024 12 gusting 13 23.9
2014-Dec-19 12:40 031 10 gusting 18 23.9
2014-Dec-19 12:30 023 13 gusting 15 23.3
2014-Dec-19 12:20 027 13 gusting 15 23.3
2014-Dec-19 12:10 031 13 gusting 17 22.8
2014-Dec-19 12:00 022 13 gusting 15 22.8
2014-Dec-19 11:50 021 14 gusting 14 22.8
2014-Dec-19 11:40 020 12 gusting 15 22.8
2014-Dec-19 11:30 030 12 gusting 18 22.2
2014-Dec-19 11:20 027 13 gusting 17 21.7
2014-Dec-19 11:10 023 11 gusting 18 21.1
2014-Dec-19 11:00 020 13 gusting 17 21.1
2014-Dec-19 10:50 016 12 gusting 14 21.1
2014-Dec-19 10:40 025 13 gusting 15 21.1
2014-Dec-19 10:30 023 13 gusting 14 21.1
2014-Dec-19 10:20 027 12 gusting 17 20.6
2014-Dec-19 10:10 017 14 gusting 18 20.6
2014-Dec-19 10:00 034 11 gusting 14 20.6
2014-Dec-19 09:50 020 7 gusting 11 20.6
2014-Dec-19 09:40 090 6 gusting 10 20.6
2014-Dec-19 09:30 107 2 gusting 6 20.6
2014-Dec-19 09:20 095 1 gusting 6 20.6
2014-Dec-19 09:10 026 20.0
2014-Dec-19 09:00 026 18.9
2014-Dec-19 08:50 026 0 gusting 2 18.3
2014-Dec-19 08:40 031 0 gusting 2 17.2
2014-Dec-19 08:30 053 1 gusting 2 16.7
2014-Dec-19 08:20 053 1 gusting 4 15.6
2014-Dec-19 08:10 053 14.4
2014-Dec-19 08:00 053 14.4
2014-Dec-19 07:50 053 15.0
2014-Dec-19 07:40 053 15.0
2014-Dec-19 07:30 053 15.6
2014-Dec-19 07:20 053 16.1
2014-Dec-19 07:10 053 1 gusting 5 16.7
2014-Dec-19 07:00 077 3 gusting 7 16.7
2014-Dec-19 06:50 091 4 gusting 8 16.7
2014-Dec-19 06:40 094 5 gusting 10 16.7
2014-Dec-19 06:30 091 5 gusting 8 16.7
2014-Dec-19 06:20 089 3 gusting 10 16.7
2014-Dec-19 06:10 087 5 gusting 10 17.2
2014-Dec-19 06:00 082 4 gusting 7 16.7
2014-Dec-19 05:50 092 4 gusting 7 16.7
2014-Dec-19 05:40 083 2 gusting 6 16.7
2014-Dec-19 05:30 084 4 gusting 7 16.7
2014-Dec-19 05:20 078 5 gusting 8 16.7
2014-Dec-19 05:10 081 2 gusting 5 15.6
2014-Dec-19 05:00 005 0 gusting 2 15.6
2014-Dec-19 04:50 355 0 gusting 2 15.6
2014-Dec-19 04:40 355 0 gusting 2 15.6
2014-Dec-19 04:30 355 0 gusting 2 15.6
2014-Dec-19 04:20 355 15.0
2014-Dec-19 04:10 355 15.6
2014-Dec-19 04:00 355 15.0
2014-Dec-19 03:50 355 15.0
2014-Dec-19 03:40 355 15.0
2014-Dec-19 01:50 336 1 gusting 2 15.6
2014-Dec-19 01:40 355 1 gusting 2 16.1
2014-Dec-19 01:30 342 1 gusting 2 16.1
2014-Dec-19 01:20 065 16.1
2014-Dec-19 01:10 066 0 gusting 2 16.1
2014-Dec-19 01:00 067 0 gusting 2 16.1
2014-Dec-19 00:50 067 0 gusting 2 16.1
2014-Dec-19 00:40 066 16.1
2014-Dec-19 00:30 066 16.7
2014-Dec-19 00:20 066 17.2
2014-Dec-19 00:10 067 17.8
2014-Dec-19 00:00 067 0 gusting 6 17.8
2014-Dec-18 23:50 072 5 gusting 7 17.8
2014-Dec-18 23:40 074 6 gusting 8 17.8
2014-Dec-18 23:30 084 4 gusting 6 17.2
2014-Dec-18 23:20 098 4 gusting 6 17.2
2014-Dec-18 23:10 093 6 gusting 11 17.8
2014-Dec-18 23:00 088 5 gusting 6 17.8
2014-Dec-18 22:50 089 4 gusting 6 17.8
2014-Dec-18 22:40 087 4 gusting 6 17.8
2014-Dec-18 22:30 087 5 gusting 6 17.8
2014-Dec-18 22:20 077 6 gusting 10 18.3
2014-Dec-18 22:10 085 6 gusting 11 17.8
2014-Dec-18 22:00 078 7 gusting 11 17.8
2014-Dec-18 21:50 087 6 gusting 8 17.8
2014-Dec-18 21:40 100 4 gusting 8 18.3
2014-Dec-18 21:30 078 8 gusting 13 18.3
2014-Dec-18 21:20 028 7 gusting 10 18.3
2014-Dec-18 21:10 026 6 gusting 8 18.3
2014-Dec-18 21:00 023 6 gusting 7 18.3
2014-Dec-18 20:50 024 7 gusting 8 18.3
2014-Dec-18 20:40 029 6 gusting 8 18.3
2014-Dec-18 20:30 028 6 gusting 10 18.3
2014-Dec-18 20:20 025 6 gusting 10 18.3
2014-Dec-18 20:10 030 5 gusting 6 18.3
2014-Dec-18 20:00 026 9 gusting 12 18.3
2014-Dec-18 19:50 027 8 gusting 10 18.3
2014-Dec-18 19:40 025 6 gusting 10 18.3
2014-Dec-18 19:30 026 6 gusting 6 18.3
2014-Dec-18 19:20 032 9 gusting 12 18.3
2014-Dec-18 19:10 032 9 gusting 12 18.9
2014-Dec-18 19:00 088 10 gusting 11 18.9
2014-Dec-18 18:50 089 8 gusting 12 18.9
2014-Dec-18 18:40 092 7 gusting 12 18.9
2014-Dec-18 18:30 096 7 gusting 11 18.9
2014-Dec-18 18:20 085 7 gusting 12 18.9
2014-Dec-18 18:10 099 7 gusting 12 19.4
2014-Dec-18 18:00 083 10 gusting 14 19.4
2014-Dec-18 17:50 089 8 gusting 12 20.0
2014-Dec-18 17:40 094 7 gusting 13 20.0
2014-Dec-18 17:30 089 10 gusting 14 20.6
2014-Dec-18 17:20 079 11 gusting 13 20.6
2014-Dec-18 17:10 088 7 gusting 12 20.6
2014-Dec-18 17:00 082 9 gusting 19 20.6
2014-Dec-18 16:50 092 8 gusting 13 21.1
2014-Dec-18 16:40 094 11 gusting 15 21.1
2014-Dec-18 16:30 076 10 gusting 17 21.1
2014-Dec-18 16:20 080 7 gusting 12 21.7
2014-Dec-18 16:10 078 7 gusting 14 21.7
2014-Dec-18 16:00 083 12 gusting 15 21.7
2014-Dec-18 15:50 094 11 gusting 15 22.2
2014-Dec-18 15:40 088 12 gusting 18 22.2
2014-Dec-18 15:30 084 12 gusting 18 21.7
2014-Dec-18 15:20 073 10 gusting 15 21.7
2014-Dec-18 15:10 085 12 gusting 19 21.7
2014-Dec-18 15:00 092 9 gusting 19 21.7
2014-Dec-18 14:50 087 13 gusting 19 21.7
2014-Dec-18 14:40 093 13 gusting 19 22.2
2014-Dec-18 14:30 094 10 gusting 19 22.2
2014-Dec-18 14:20 107 11 gusting 19 22.2
2014-Dec-18 14:10 101 12 gusting 15 22.8
2014-Dec-18 14:00 105 14 gusting 19 22.2
2014-Dec-18 13:50 108 11 gusting 15 22.2
2014-Dec-18 13:40 109 12 gusting 17 21.7
2014-Dec-18 13:30 108 12 gusting 17 21.1
2014-Dec-18 13:20 104 12 gusting 18 20.6
2014-Dec-18 13:10 114 12 gusting 18 21.1
2014-Dec-18 13:00 107 12 gusting 18 22.2
2014-Dec-18 12:50 117 12 gusting 18 22.2
2014-Dec-18 12:40 092 11 gusting 17 21.7
2014-Dec-18 12:30 079 10 gusting 17 21.7
2014-Dec-18 12:20 074 13 gusting 19 21.7
2014-Dec-18 12:10 065 9 gusting 13 21.7
2014-Dec-18 12:00 094 10 gusting 17 21.1
2014-Dec-18 11:50 085 13 gusting 18 21.7
2014-Dec-18 11:40 075 9 gusting 14 21.7
2014-Dec-18 11:30 094 10 gusting 18 21.7
2014-Dec-18 11:20 072 8 gusting 13 20.6
2014-Dec-18 11:10 087 6 gusting 12 20.0
2014-Dec-18 11:00 073 12 gusting 17 20.0
2014-Dec-18 10:50 081 11 gusting 18 20.0
2014-Dec-18 10:40 090 12 gusting 19 19.4
2014-Dec-18 10:30 091 10 gusting 14 20.0
2014-Dec-18 10:20 107 12 gusting 18 20.6
2014-Dec-18 10:10 087 8 gusting 14 21.1
2014-Dec-18 10:00 075 12 gusting 17 21.1
2014-Dec-18 09:50 089 10 gusting 15 20.6
2014-Dec-18 09:40 076 10 gusting 18 20.6
2014-Dec-18 09:30 079 12 gusting 17 20.0
2014-Dec-18 09:20 078 8 gusting 19 20.0
2014-Dec-18 09:10 075 10 gusting 20 19.4
2014-Dec-18 09:00 061 7 gusting 13 19.4
2014-Dec-18 08:50 089 10 gusting 17 18.9
2014-Dec-18 08:40 077 11 gusting 15 18.3
2014-Dec-18 08:30 075 12 gusting 18 18.3
2014-Dec-18 08:20 084 10 gusting 14 17.8
2014-Dec-18 08:10 086 12 gusting 17 17.8
2014-Dec-18 08:00 077 9 gusting 14 17.8
2014-Dec-18 07:50 073 9 gusting 13 17.8
2014-Dec-18 07:40 084 11 gusting 14 17.8
2014-Dec-18 07:30 069 8 gusting 14 17.8
2014-Dec-18 07:20 069 9 gusting 15 17.8
2014-Dec-18 07:10 071 7 gusting 14 17.2
2014-Dec-18 07:00 034 5 gusting 13 17.2
2014-Dec-18 06:50 048 6 gusting 13 17.2
2014-Dec-18 05:50 109 6 gusting 7 17.8
2014-Dec-18 05:40 100 7 gusting 11 17.8
2014-Dec-18 05:30 088 8 gusting 13 17.8
2014-Dec-18 05:20 085 8 gusting 13 17.8
2014-Dec-18 05:10 085 9 gusting 13 18.3
2014-Dec-18 05:00 061 8 gusting 13 18.3